sensor_id;sensor_type;location;lat;lon;timestamp;pressure;altitude;pressure_sealevel;temperature;humidity
21433;BME280;18592;49.708;10.900;2023-01-29T00:01:58;99859.31;;;3.44;49.46
21433;BME280;18592;49.708;10.900;2023-01-29T00:04:00;99854.59;;;3.46;48.99
21433;BME280;18592;49.708;10.900;2023-01-29T00:06:06;99860.81;;;3.46;48.66
21433;BME280;18592;49.708;10.900;2023-01-29T00:08:08;99852.56;;;3.48;49.43
21433;BME280;18592;49.708;10.900;2023-01-29T00:10:10;99848.00;;;3.48;49.03
21433;BME280;18592;49.708;10.900;2023-01-29T00:12:12;99848.16;;;3.47;48.91
21433;BME280;18592;49.708;10.900;2023-01-29T00:14:13;99849.84;;;3.48;49.27
21433;BME280;18592;49.708;10.900;2023-01-29T00:16:15;99849.00;;;3.47;49.08
21433;BME280;18592;49.708;10.900;2023-01-29T00:18:17;99855.59;;;3.45;48.56
21433;BME280;18592;49.708;10.900;2023-01-29T00:20:18;99839.75;;;3.42;49.13
21433;BME280;18592;49.708;10.900;2023-01-29T00:22:20;99850.38;;;3.43;48.95
21433;BME280;18592;49.708;10.900;2023-01-29T00:24:22;99851.91;;;3.46;48.94
21433;BME280;18592;49.708;10.900;2023-01-29T00:26:24;99853.56;;;3.47;48.85
21433;BME280;18592;49.708;10.900;2023-01-29T00:28:25;99848.16;;;3.47;49.52
21433;BME280;18592;49.708;10.900;2023-01-29T00:30:27;99846.50;;;3.46;49.10
21433;BME280;18592;49.708;10.900;2023-01-29T00:32:29;99835.72;;;3.46;49.26
21433;BME280;18592;49.708;10.900;2023-01-29T00:34:32;99838.56;;;3.44;48.81
21433;BME280;18592;49.708;10.900;2023-01-29T00:36:34;99834.03;;;3.45;49.02
21433;BME280;18592;49.708;10.900;2023-01-29T00:38:36;99837.75;;;3.44;48.81
21433;BME280;18592;49.708;10.900;2023-01-29T00:40:39;99836.91;;;3.43;48.89
21433;BME280;18592;49.708;10.900;2023-01-29T00:42:59;99833.38;;;3.43;49.41
21433;BME280;18592;49.708;10.900;2023-01-29T00:45:19;99833.56;;;3.41;49.14
21433;BME280;18592;49.708;10.900;2023-01-29T00:47:21;99825.63;;;3.40;49.26
21433;BME280;18592;49.708;10.900;2023-01-29T00:49:36;99829.50;;;3.37;49.03
21433;BME280;18592;49.708;10.900;2023-01-29T00:51:39;99829.34;;;3.39;49.25
21433;BME280;18592;49.708;10.900;2023-01-29T00:53:41;99827.66;;;3.38;49.25
21433;BME280;18592;49.708;10.900;2023-01-29T00:55:45;99822.28;;;3.38;48.80
21433;BME280;18592;49.708;10.900;2023-01-29T00:57:47;99833.06;;;3.38;49.13
21433;BME280;18592;49.708;10.900;2023-01-29T00:59:49;99831.03;;;3.40;48.64
21433;BME280;18592;49.708;10.900;2023-01-29T01:01:51;99833.72;;;3.40;49.00
21433;BME280;18592;49.708;10.900;2023-01-29T01:04:12;99822.28;;;3.38;49.08
21433;BME280;18592;49.708;10.900;2023-01-29T01:06:14;99824.97;;;3.38;49.33
21433;BME280;18592;49.708;10.900;2023-01-29T01:08:17;99818.56;;;3.39;49.18
21433;BME280;18592;49.708;10.900;2023-01-29T01:10:39;99803.22;;;3.39;49.00
21433;BME280;18592;49.708;10.900;2023-01-29T01:12:41;99802.22;;;3.40;49.13
21433;BME280;18592;49.708;10.900;2023-01-29T01:14:43;99799.53;;;3.40;48.84
21433;BME280;18592;49.708;10.900;2023-01-29T01:16:47;99804.91;;;3.40;48.87
21433;BME280;18592;49.708;10.900;2023-01-29T01:18:49;99816.53;;;3.41;48.62
21433;BME280;18592;49.708;10.900;2023-01-29T01:20:56;99803.91;;;3.41;48.73
21433;BME280;18592;49.708;10.900;2023-01-29T01:22:58;99813.66;;;3.42;49.25
21433;BME280;18592;49.708;10.900;2023-01-29T01:25:00;99813.00;;;3.40;48.52
21433;BME280;18592;49.708;10.900;2023-01-29T01:27:01;99817.38;;;3.41;48.85
21433;BME280;18592;49.708;10.900;2023-01-29T01:29:03;99814.84;;;3.40;48.51
21433;BME280;18592;49.708;10.900;2023-01-29T01:31:09;99825.63;;;3.40;48.66
21433;BME280;18592;49.708;10.900;2023-01-29T01:33:12;99824.97;;;3.38;49.17
21433;BME280;18592;49.708;10.900;2023-01-29T01:35:13;99823.97;;;3.39;48.68
21433;BME280;18592;49.708;10.900;2023-01-29T01:37:15;99824.13;;;3.37;49.08
21433;BME280;18592;49.708;10.900;2023-01-29T01:39:17;99822.28;;;3.38;48.82
21433;BME280;18592;49.708;10.900;2023-01-29T01:41:20;99820.59;;;3.37;49.28
21433;BME280;18592;49.708;10.900;2023-01-29T01:43:23;99815.38;;;3.35;49.34
21433;BME280;18592;49.708;10.900;2023-01-29T01:45:32;99816.22;;;3.36;48.88
21433;BME280;18592;49.708;10.900;2023-01-29T01:47:41;99816.88;;;3.38;48.75
21433;BME280;18592;49.708;10.900;2023-01-29T01:49:43;99824.97;;;3.38;48.63
21433;BME280;18592;49.708;10.900;2023-01-29T01:51:48;99813.19;;;3.39;48.80
21433;BME280;18592;49.708;10.900;2023-01-29T01:53:59;99816.88;;;3.38;48.81
21433;BME280;18592;49.708;10.900;2023-01-29T01:56:09;99827.66;;;3.38;48.59
21433;BME280;18592;49.708;10.900;2023-01-29T01:58:17;99823.13;;;3.38;49.09
21433;BME280;18592;49.708;10.900;2023-01-29T02:00:24;99816.88;;;3.38;48.82
21433;BME280;18592;49.708;10.900;2023-01-29T02:02:26;99813.19;;;3.39;49.09
21433;BME280;18592;49.708;10.900;2023-01-29T02:04:51;99805.25;;;3.37;49.03
21433;BME280;18592;49.708;10.900;2023-01-29T02:07:14;99811.50;;;3.38;48.83
21433;BME280;18592;49.708;10.900;2023-01-29T02:09:39;99814.19;;;3.38;49.04
21433;BME280;18592;49.708;10.900;2023-01-29T02:11:41;99808.81;;;3.38;48.92
21433;BME280;18592;49.708;10.900;2023-01-29T02:13:44;99814.19;;;3.38;49.46
21433;BME280;18592;49.708;10.900;2023-01-29T02:15:47;99806.09;;;3.38;49.16
21433;BME280;18592;49.708;10.900;2023-01-29T02:17:50;99797.84;;;3.39;49.00
21433;BME280;18592;49.708;10.900;2023-01-29T02:20:17;99791.78;;;3.37;48.99
21433;BME280;18592;49.708;10.900;2023-01-29T02:27:07;99795.50;;;3.36;48.92
21433;BME280;18592;49.708;10.900;2023-01-29T02:31:40;99785.53;;;3.37;49.30
21433;BME280;18592;49.708;10.900;2023-01-29T02:34:12;99791.97;;;3.36;49.21
21433;BME280;18592;49.708;10.900;2023-01-29T02:38:40;99791.97;;;3.36;49.06
21433;BME280;18592;49.708;10.900;2023-01-29T02:40:52;99799.03;;;3.37;49.34
21433;BME280;18592;49.708;10.900;2023-01-29T02:43:07;99801.56;;;3.38;49.14
21433;BME280;18592;49.708;10.900;2023-01-29T02:45:40;99807.09;;;3.37;48.72
21433;BME280;18592;49.708;10.900;2023-01-29T02:52:16;99794.13;;;3.40;49.21
21433;BME280;18592;49.708;10.900;2023-01-29T02:54:23;99786.91;;;3.41;48.88
21433;BME280;18592;49.708;10.900;2023-01-29T02:56:53;99788.75;;;3.40;48.92
21433;BME280;18592;49.708;10.900;2023-01-29T02:59:01;99795.81;;;3.41;48.82
21433;BME280;18592;49.708;10.900;2023-01-29T03:01:14;99786.91;;;3.41;49.01
21433;BME280;18592;49.708;10.900;2023-01-29T03:03:33;99790.44;;;3.41;48.71
21433;BME280;18592;49.708;10.900;2023-01-29T03:06:05;99795.81;;;3.41;49.05
21433;BME280;18592;49.708;10.900;2023-01-29T03:08:10;99803.72;;;3.43;48.99
21433;BME280;18592;49.708;10.900;2023-01-29T03:10:31;99801.88;;;3.43;49.12
21433;BME280;18592;49.708;10.900;2023-01-29T03:12:37;99798.34;;;3.43;49.06
21433;BME280;18592;49.708;10.900;2023-01-29T03:14:40;99800.03;;;3.44;49.27
21433;BME280;18592;49.708;10.900;2023-01-29T03:17:02;99791.94;;;3.44;48.74
21433;BME280;18592;49.708;10.900;2023-01-29T03:19:31;99804.38;;;3.45;49.01
21433;BME280;18592;49.708;10.900;2023-01-29T03:21:46;99799.00;;;3.45;48.79
21433;BME280;18592;49.708;10.900;2023-01-29T03:23:57;99799.66;;;3.47;48.95
21433;BME280;18592;49.708;10.900;2023-01-29T03:26:21;99801.53;;;3.46;49.12
21433;BME280;18592;49.708;10.900;2023-01-29T03:28:43;99803.38;;;3.46;49.43
21433;BME280;18592;49.708;10.900;2023-01-29T03:31:10;99802.34;;;3.47;48.89
21433;BME280;18592;49.708;10.900;2023-01-29T03:33:47;99817.69;;;3.46;49.21
21433;BME280;18592;49.708;10.900;2023-01-29T03:35:55;99814.16;;;3.46;49.03
21433;BME280;18592;49.708;10.900;2023-01-29T03:38:03;99806.06;;;3.46;48.91
21433;BME280;18592;49.708;10.900;2023-01-29T03:40:06;99808.78;;;3.46;48.87
21433;BME280;18592;49.708;10.900;2023-01-29T03:44:38;99820.56;;;3.45;48.52
21433;BME280;18592;49.708;10.900;2023-01-29T03:51:58;99822.78;;;3.41;48.90
21433;BME280;18592;49.708;10.900;2023-01-29T03:57:01;99831.03;;;3.40;48.67
21433;BME280;18592;49.708;10.900;2023-01-29T03:59:31;99830.16;;;3.39;48.95
21433;BME280;18592;49.708;10.900;2023-01-29T04:01:53;99834.75;;;3.39;48.86
21433;BME280;18592;49.708;10.900;2023-01-29T04:04:04;99828.50;;;3.38;48.87
21433;BME280;18592;49.708;10.900;2023-01-29T04:06:16;99828.50;;;3.38;49.36
21433;BME280;18592;49.708;10.900;2023-01-29T04:08:31;99823.97;;;3.39;48.77
21433;BME280;18592;49.708;10.900;2023-01-29T04:10:36;99821.09;;;3.40;48.87
21433;BME280;18592;49.708;10.900;2023-01-29T04:13:03;99814.00;;;3.39;49.27
21433;BME280;18592;49.708;10.900;2023-01-29T04:15:08;99814.00;;;3.39;49.13
21433;BME280;18592;49.708;10.900;2023-01-29T04:17:15;99823.13;;;3.38;48.58
21433;BME280;18592;49.708;10.900;2023-01-29T04:19:41;99830.34;;;3.38;48.98
21433;BME280;18592;49.708;10.900;2023-01-29T04:21:44;99834.75;;;3.39;48.84
21433;BME280;18592;49.708;10.900;2023-01-29T04:23:48;99829.34;;;3.39;48.75
21433;BME280;18592;49.708;10.900;2023-01-29T04:28:21;99838.44;;;3.38;48.88
21433;BME280;18592;49.708;10.900;2023-01-29T04:30:58;99829.34;;;3.39;49.10
21433;BME280;18592;49.708;10.900;2023-01-29T04:33:10;99828.50;;;3.38;48.79
21433;BME280;18592;49.708;10.900;2023-01-29T04:35:25;99828.50;;;3.38;48.83
21433;BME280;18592;49.708;10.900;2023-01-29T04:37:58;99827.66;;;3.38;48.73
21433;BME280;18592;49.708;10.900;2023-01-29T04:42:34;99816.03;;;3.37;48.91
21433;BME280;18592;49.708;10.900;2023-01-29T04:47:04;99812.34;;;3.38;48.75
21433;BME280;18592;49.708;10.900;2023-01-29T04:49:26;99800.72;;;3.38;48.69
21433;BME280;18592;49.708;10.900;2023-01-29T04:53:54;99800.72;;;3.38;48.82
21433;BME280;18592;49.708;10.900;2023-01-29T04:56:06;99805.09;;;3.39;48.69
21433;BME280;18592;49.708;10.900;2023-01-29T04:58:25;99802.41;;;3.39;48.77
21433;BME280;18592;49.708;10.900;2023-01-29T05:00:34;99800.38;;;3.41;48.73
21433;BME280;18592;49.708;10.900;2023-01-29T05:02:39;99800.38;;;3.41;49.21
21433;BME280;18592;49.708;10.900;2023-01-29T05:04:43;99803.72;;;3.43;49.26
21433;BME280;18592;49.708;10.900;2023-01-29T05:06:47;99808.28;;;3.42;48.92
21433;BME280;18592;49.708;10.900;2023-01-29T05:08:52;99806.22;;;3.44;48.68
21433;BME280;18592;49.708;10.900;2023-01-29T05:10:56;99794.63;;;3.44;49.04
21433;BME280;18592;49.708;10.900;2023-01-29T05:13:00;99794.44;;;3.45;48.91
21433;BME280;18592;49.708;10.900;2023-01-29T05:15:11;99780.97;;;3.45;49.01
21433;BME280;18592;49.708;10.900;2023-01-29T05:17:17;99787.22;;;3.46;49.03
21433;BME280;18592;49.708;10.900;2023-01-29T05:19:20;99780.97;;;3.45;49.36
21433;BME280;18592;49.708;10.900;2023-01-29T05:21:23;99777.28;;;3.46;49.17
21433;BME280;18592;49.708;10.900;2023-01-29T05:23:26;99773.72;;;3.46;48.58
21433;BME280;18592;49.708;10.900;2023-01-29T05:25:30;99765.66;;;3.46;49.05
21433;BME280;18592;49.708;10.900;2023-01-29T05:27:34;99762.75;;;3.47;49.04
21433;BME280;18592;49.708;10.900;2023-01-29T05:29:55;99755.53;;;3.48;49.22
21433;BME280;18592;49.708;10.900;2023-01-29T05:32:01;99747.44;;;3.48;49.15
21433;BME280;18592;49.708;10.900;2023-01-29T05:34:02;99749.28;;;3.47;48.96
21433;BME280;18592;49.708;10.900;2023-01-29T05:36:04;99744.56;;;3.49;48.74
21433;BME280;18592;49.708;10.900;2023-01-29T05:38:07;99750.78;;;3.50;48.64
21433;BME280;18592;49.708;10.900;2023-01-29T05:40:15;99749.28;;;3.47;48.69
21433;BME280;18592;49.708;10.900;2023-01-29T05:42:17;99739.34;;;3.48;48.53
21433;BME280;18592;49.708;10.900;2023-01-29T05:44:21;99748.28;;;3.48;49.32
21433;BME280;18592;49.708;10.900;2023-01-29T05:46:22;99754.53;;;3.49;48.45
21433;BME280;18592;49.708;10.900;2023-01-29T05:48:25;99754.53;;;3.49;49.03
21433;BME280;18592;49.708;10.900;2023-01-29T05:50:31;99752.84;;;3.48;48.88
21433;BME280;18592;49.708;10.900;2023-01-29T05:52:33;99760.72;;;3.49;48.95
21433;BME280;18592;49.708;10.900;2023-01-29T05:54:35;99769.00;;;3.48;49.07
21433;BME280;18592;49.708;10.900;2023-01-29T05:56:37;99762.75;;;3.47;49.00
21433;BME280;18592;49.708;10.900;2023-01-29T05:58:39;99775.25;;;3.48;48.87
21433;BME280;18592;49.708;10.900;2023-01-29T06:00:41;99774.41;;;3.48;48.77
21433;BME280;18592;49.708;10.900;2023-01-29T06:02:42;99772.53;;;3.48;49.27
21433;BME280;18592;49.708;10.900;2023-01-29T06:04:44;99767.31;;;3.47;48.68
21433;BME280;18592;49.708;10.900;2023-01-29T06:06:46;99769.19;;;3.46;48.47
21433;BME280;18592;49.708;10.900;2023-01-29T06:08:48;99769.00;;;3.48;48.33
21433;BME280;18592;49.708;10.900;2023-01-29T06:10:49;99775.41;;;3.47;48.56
21433;BME280;18592;49.708;10.900;2023-01-29T06:12:51;99773.53;;;3.47;48.58
21433;BME280;18592;49.708;10.900;2023-01-29T06:14:53;99776.44;;;3.46;48.48
21433;BME280;18592;49.708;10.900;2023-01-29T06:16:54;99783.47;;;3.47;48.84
21433;BME280;18592;49.708;10.900;2023-01-29T06:18:56;99780.97;;;3.45;49.08
21433;BME280;18592;49.708;10.900;2023-01-29T06:21:02;99779.13;;;3.46;48.65
21433;BME280;18592;49.708;10.900;2023-01-29T06:23:04;99778.94;;;3.47;49.21
21433;BME280;18592;49.708;10.900;2023-01-29T06:25:06;99779.97;;;3.46;48.81
21433;BME280;18592;49.708;10.900;2023-01-29T06:27:08;99782.66;;;3.46;48.45
21433;BME280;18592;49.708;10.900;2023-01-29T06:29:09;99786.19;;;3.47;48.91
21433;BME280;18592;49.708;10.900;2023-01-29T06:31:11;99788.88;;;3.47;49.11
21433;BME280;18592;49.708;10.900;2023-01-29T06:33:33;99790.91;;;3.45;48.89
21433;BME280;18592;49.708;10.900;2023-01-29T06:35:35;99799.84;;;3.45;48.75
21433;BME280;18592;49.708;10.900;2023-01-29T06:37:37;99791.75;;;3.45;48.97
21433;BME280;18592;49.708;10.900;2023-01-29T06:39:38;99797.16;;;3.45;48.97
21433;BME280;18592;49.708;10.900;2023-01-29T06:41:40;99792.59;;;3.46;49.13
21433;BME280;18592;49.708;10.900;2023-01-29T06:43:45;99788.22;;;3.45;49.41
21433;BME280;18592;49.708;10.900;2023-01-29T06:45:53;99796.31;;;3.45;48.91
21433;BME280;18592;49.708;10.900;2023-01-29T06:47:55;99791.75;;;3.45;48.86
21433;BME280;18592;49.708;10.900;2023-01-29T06:49:57;99795.28;;;3.46;49.16
21433;BME280;18592;49.708;10.900;2023-01-29T06:52:01;99790.91;;;3.45;49.58
21433;BME280;18592;49.708;10.900;2023-01-29T06:54:03;99789.91;;;3.46;48.95
21433;BME280;18592;49.708;10.900;2023-01-29T06:56:05;99787.22;;;3.46;48.78
21433;BME280;18592;49.708;10.900;2023-01-29T06:58:11;99789.72;;;3.47;48.80
21433;BME280;18592;49.708;10.900;2023-01-29T07:00:13;99789.72;;;3.47;49.47
21433;BME280;18592;49.708;10.900;2023-01-29T07:02:18;99790.75;;;3.46;49.34
21433;BME280;18592;49.708;10.900;2023-01-29T07:04:20;99791.56;;;3.47;49.12
21433;BME280;18592;49.708;10.900;2023-01-29T07:06:27;99794.25;;;3.47;48.97
21433;BME280;18592;49.708;10.900;2023-01-29T07:08:29;99783.47;;;3.47;49.19
21433;BME280;18592;49.708;10.900;2023-01-29T07:10:31;99786.19;;;3.47;48.92
21433;BME280;18592;49.708;10.900;2023-01-29T07:12:32;99786.19;;;3.47;49.22
21433;BME280;18592;49.708;10.900;2023-01-29T07:14:34;99784.31;;;3.47;49.32
21433;BME280;18592;49.708;10.900;2023-01-29T07:16:35;99781.63;;;3.47;49.29
21433;BME280;18592;49.708;10.900;2023-01-29T07:18:37;99785.16;;;3.48;48.83
21433;BME280;18592;49.708;10.900;2023-01-29T07:20:40;99784.31;;;3.47;49.08
21433;BME280;18592;49.708;10.900;2023-01-29T07:22:42;99778.78;;;3.49;49.13
21433;BME280;18592;49.708;10.900;2023-01-29T07:24:43;99784.97;;;3.49;49.45
21433;BME280;18592;49.708;10.900;2023-01-29T07:26:45;99791.22;;;3.50;49.13
21433;BME280;18592;49.708;10.900;2023-01-29T07:28:50;99788.53;;;3.50;49.36
21433;BME280;18592;49.708;10.900;2023-01-29T07:30:57;99790.38;;;3.49;48.65
21433;BME280;18592;49.708;10.900;2023-01-29T07:33:01;99797.66;;;3.49;49.38
21433;BME280;18592;49.708;10.900;2023-01-29T07:35:06;99805.72;;;3.49;49.38
21433;BME280;18592;49.708;10.900;2023-01-29T07:37:07;99807.41;;;3.50;49.10
21433;BME280;18592;49.708;10.900;2023-01-29T07:39:09;99808.25;;;3.50;48.81
21433;BME280;18592;49.708;10.900;2023-01-29T07:41:10;99808.06;;;3.52;49.13
21433;BME280;18592;49.708;10.900;2023-01-29T07:43:13;99810.75;;;3.52;49.56
21433;BME280;18592;49.708;10.900;2023-01-29T07:45:16;99808.06;;;3.52;48.81
21433;BME280;18592;49.708;10.900;2023-01-29T07:47:18;99818.84;;;3.52;49.13
21433;BME280;18592;49.708;10.900;2023-01-29T07:49:19;99831.31;;;3.53;49.67
21433;BME280;18592;49.708;10.900;2023-01-29T07:51:21;99827.63;;;3.54;49.06
21433;BME280;18592;49.708;10.900;2023-01-29T07:53:23;99823.03;;;3.54;48.87
21433;BME280;18592;49.708;10.900;2023-01-29T07:55:25;99822.22;;;3.54;49.33
21433;BME280;18592;49.708;10.900;2023-01-29T07:57:27;99824.91;;;3.54;49.59
21433;BME280;18592;49.708;10.900;2023-01-29T07:59:30;99821.19;;;3.55;48.75
21433;BME280;18592;49.708;10.900;2023-01-29T08:01:32;99818.50;;;3.55;48.77
21433;BME280;18592;49.708;10.900;2023-01-29T08:03:35;99811.25;;;3.55;48.91
21433;BME280;18592;49.708;10.900;2023-01-29T08:05:36;99805.66;;;3.57;48.85
21433;BME280;18592;49.708;10.900;2023-01-29T08:07:39;99811.06;;;3.57;49.10
21433;BME280;18592;49.708;10.900;2023-01-29T08:09:41;99807.56;;;3.56;48.85
21433;BME280;18592;49.708;10.900;2023-01-29T08:11:42;99810.25;;;3.56;48.79
21433;BME280;18592;49.708;10.900;2023-01-29T08:13:44;99808.22;;;3.58;48.94
21433;BME280;18592;49.708;10.900;2023-01-29T08:15:47;99800.97;;;3.59;49.73
21433;BME280;18592;49.708;10.900;2023-01-29T08:17:49;99803.66;;;3.59;49.08
21433;BME280;18592;49.708;10.900;2023-01-29T08:19:58;99808.03;;;3.60;49.18
21433;BME280;18592;49.708;10.900;2023-01-29T08:22:00;99811.56;;;3.60;49.09
21433;BME280;18592;49.708;10.900;2023-01-29T08:24:05;99819.47;;;3.62;49.19
21433;BME280;18592;49.708;10.900;2023-01-29T08:26:07;99827.53;;;3.62;49.34
21433;BME280;18592;49.708;10.900;2023-01-29T08:28:09;99826.53;;;3.63;49.48
21433;BME280;18592;49.708;10.900;2023-01-29T08:30:12;99826.34;;;3.64;48.86
21433;BME280;18592;49.708;10.900;2023-01-29T08:32:14;99828.91;;;3.66;49.76
21433;BME280;18592;49.708;10.900;2023-01-29T08:34:16;99821.66;;;3.66;49.21
21433;BME280;18592;49.708;10.900;2023-01-29T08:36:18;99833.94;;;3.69;49.47
21433;BME280;18592;49.708;10.900;2023-01-29T08:38:20;99831.06;;;3.70;49.57
21433;BME280;18592;49.708;10.900;2023-01-29T08:40:21;99840.84;;;3.71;49.36
21433;BME280;18592;49.708;10.900;2023-01-29T08:42:23;99843.16;;;3.74;49.76
21433;BME280;18592;49.708;10.900;2023-01-29T08:44:24;99850.25;;;3.75;50.01
21433;BME280;18592;49.708;10.900;2023-01-29T08:46:26;99858.16;;;3.77;49.38
21433;BME280;18592;49.708;10.900;2023-01-29T08:48:28;99852.59;;;3.78;49.90
21433;BME280;18592;49.708;10.900;2023-01-29T08:50:31;99851.41;;;3.81;50.10
21433;BME280;18592;49.708;10.900;2023-01-29T08:52:35;99855.59;;;3.83;49.75
21433;BME280;18592;49.708;10.900;2023-01-29T08:54:37;99852.06;;;3.83;49.75
21433;BME280;18592;49.708;10.900;2023-01-29T08:56:39;99856.44;;;3.84;49.73
21433;BME280;18592;49.708;10.900;2023-01-29T08:58:41;99856.91;;;3.88;49.71
21433;BME280;18592;49.708;10.900;2023-01-29T09:00:43;99854.22;;;3.88;49.38
21433;BME280;18592;49.708;10.900;2023-01-29T09:02:45;99852.03;;;3.91;49.33
21433;BME280;18592;49.708;10.900;2023-01-29T09:04:47;99851.84;;;3.93;49.57
21433;BME280;18592;49.708;10.900;2023-01-29T09:06:49;99859.13;;;3.92;49.56
21433;BME280;18592;49.708;10.900;2023-01-29T09:08:51;99866.81;;;3.95;49.82
21433;BME280;18592;49.708;10.900;2023-01-29T09:10:57;99855.03;;;3.96;49.27
21433;BME280;18592;49.708;10.900;2023-01-29T09:12:58;99857.53;;;3.98;49.92
21433;BME280;18592;49.708;10.900;2023-01-29T09:15:00;99854.03;;;3.97;48.93
21433;BME280;18592;49.708;10.900;2023-01-29T09:17:01;99849.28;;;3.99;49.24
21433;BME280;18592;49.708;10.900;2023-01-29T09:19:03;99845.41;;;4.02;49.72
21433;BME280;18592;49.708;10.900;2023-01-29T09:21:05;99840.00;;;4.02;49.44
21433;BME280;18592;49.708;10.900;2023-01-29T09:23:08;99837.13;;;4.03;49.74
21433;BME280;18592;49.708;10.900;2023-01-29T09:25:10;99832.38;;;4.05;49.62
21433;BME280;18592;49.708;10.900;2023-01-29T09:27:15;99834.06;;;4.06;49.47
21433;BME280;18592;49.708;10.900;2023-01-29T09:29:17;99833.88;;;4.08;49.34
21433;BME280;18592;49.708;10.900;2023-01-29T09:31:18;99834.72;;;4.08;49.24
21433;BME280;18592;49.708;10.900;2023-01-29T09:33:20;99813.13;;;4.08;49.43
21433;BME280;18592;49.708;10.900;2023-01-29T09:35:22;99818.53;;;4.08;49.01
21433;BME280;18592;49.708;10.900;2023-01-29T09:37:25;99804.03;;;4.09;49.16
21433;BME280;18592;49.708;10.900;2023-01-29T09:39:27;99795.94;;;4.09;49.73
21433;BME280;18592;49.708;10.900;2023-01-29T09:41:52;99792.06;;;4.12;49.37
21433;BME280;18592;49.708;10.900;2023-01-29T09:44:01;99784.81;;;4.12;49.30
21433;BME280;18592;49.708;10.900;2023-01-29T09:46:08;99784.59;;;4.14;49.68
21433;BME280;18592;49.708;10.900;2023-01-29T09:48:15;99781.56;;;4.17;49.80
21433;BME280;18592;49.708;10.900;2023-01-29T09:50:32;99796.91;;;4.16;49.21
21433;BME280;18592;49.708;10.900;2023-01-29T09:52:42;99805.50;;;4.20;49.97
21433;BME280;18592;49.708;10.900;2023-01-29T09:54:53;99805.94;;;4.23;49.84
21433;BME280;18592;49.708;10.900;2023-01-29T09:56:59;99808.28;;;4.26;49.99
21433;BME280;18592;49.708;10.900;2023-01-29T09:59:01;99815.38;;;4.27;49.62
21433;BME280;18592;49.708;10.900;2023-01-29T10:08:19;99836.19;;;4.41;49.91
21433;BME280;18592;49.708;10.900;2023-01-29T10:17:42;99843.47;;;4.56;49.60
21433;BME280;18592;49.708;10.900;2023-01-29T10:26:34;99854.72;;;4.67;49.34
21433;BME280;18592;49.708;10.900;2023-01-29T10:28:44;99858.06;;;4.69;49.29
21433;BME280;18592;49.708;10.900;2023-01-29T10:30:50;99842.16;;;4.74;49.46
21433;BME280;18592;49.708;10.900;2023-01-29T10:33:01;99836.56;;;4.76;49.22
21433;BME280;18592;49.708;10.900;2023-01-29T10:37:36;99822.88;;;4.77;48.76
21433;BME280;18592;49.708;10.900;2023-01-29T10:39:40;99818.63;;;4.83;49.76
21433;BME280;18592;49.708;10.900;2023-01-29T10:42:01;99817.59;;;4.84;49.01
21433;BME280;18592;49.708;10.900;2023-01-29T10:44:27;99808.47;;;4.85;49.10
21433;BME280;18592;49.708;10.900;2023-01-29T10:51:45;99782.88;;;4.95;49.21
21433;BME280;18592;49.708;10.900;2023-01-29T10:54:22;99777.47;;;4.95;48.65
21433;BME280;18592;49.708;10.900;2023-01-29T10:56:43;99786.59;;;4.94;48.82
21433;BME280;18592;49.708;10.900;2023-01-29T10:58:48;99777.91;;;4.99;48.84
21433;BME280;18592;49.708;10.900;2023-01-29T11:00:51;99781.66;;;4.98;49.16
21433;BME280;18592;49.708;10.900;2023-01-29T11:02:53;99769.66;;;5.00;48.58
21433;BME280;18592;49.708;10.900;2023-01-29T11:04:55;99766.38;;;5.05;48.82
21433;BME280;18592;49.708;10.900;2023-01-29T11:06:57;99766.38;;;5.05;48.42
21433;BME280;18592;49.708;10.900;2023-01-29T11:09:32;99765.72;;;5.03;48.40
21433;BME280;18592;49.708;10.900;2023-01-29T11:11:54;99755.72;;;5.03;48.44
21433;BME280;18592;49.708;10.900;2023-01-29T11:14:01;99753.50;;;5.07;49.09
21433;BME280;18592;49.708;10.900;2023-01-29T11:16:08;99752.31;;;5.09;48.89
21433;BME280;18592;49.708;10.900;2023-01-29T11:18:13;99757.91;;;5.08;48.83
21433;BME280;18592;49.708;10.900;2023-01-29T11:20:25;99747.25;;;5.06;48.70
21433;BME280;18592;49.708;10.900;2023-01-29T11:22:29;99736.44;;;5.06;48.31
21433;BME280;18592;49.708;10.900;2023-01-29T11:24:31;99729.47;;;5.12;48.52
21433;BME280;18592;49.708;10.900;2023-01-29T11:26:34;99723.41;;;5.10;48.61
21433;BME280;18592;49.708;10.900;2023-01-29T11:28:44;99729.94;;;5.16;48.95
21433;BME280;18592;49.708;10.900;2023-01-29T11:30:51;99714.34;;;5.32;48.97
21433;BME280;18592;49.708;10.900;2023-01-29T11:33:09;99714.19;;;5.34;48.82
21433;BME280;18592;49.708;10.900;2023-01-29T11:37:15;99707.34;;;5.38;49.04
21433;BME280;18592;49.708;10.900;2023-01-29T11:39:19;99706.13;;;5.40;48.65
21433;BME280;18592;49.708;10.900;2023-01-29T11:41:22;99699.31;;;5.44;48.45
21433;BME280;18592;49.708;10.900;2023-01-29T11:45:28;99690.44;;;5.50;48.13
21433;BME280;18592;49.708;10.900;2023-01-29T11:47:32;99689.44;;;5.51;48.35
21433;BME280;18592;49.708;10.900;2023-01-29T11:49:34;99675.50;;;5.54;48.39
21433;BME280;18592;49.708;10.900;2023-01-29T11:51:37;99675.50;;;5.54;48.01
21433;BME280;18592;49.708;10.900;2023-01-29T11:53:44;99670.75;;;5.56;48.61
21433;BME280;18592;49.708;10.900;2023-01-29T11:55:49;99672.03;;;5.60;48.16
21433;BME280;18592;49.708;10.900;2023-01-29T11:58:15;99666.63;;;5.60;48.25
21433;BME280;18592;49.708;10.900;2023-01-29T12:00:26;99666.44;;;5.62;47.69
21433;BME280;18592;49.708;10.900;2023-01-29T12:02:42;99657.31;;;5.63;47.94
21433;BME280;18592;49.708;10.900;2023-01-29T12:04:46;99669.41;;;5.67;48.04
21433;BME280;18592;49.708;10.900;2023-01-29T12:06:49;99661.09;;;5.68;48.04
21433;BME280;18592;49.708;10.900;2023-01-29T12:08:55;99661.09;;;5.68;48.28
21433;BME280;18592;49.708;10.900;2023-01-29T12:11:26;99653.00;;;5.68;47.94
21433;BME280;18592;49.708;10.900;2023-01-29T12:13:28;99651.94;;;5.69;48.30
21433;BME280;18592;49.708;10.900;2023-01-29T12:15:30;99653.63;;;5.70;48.05
21433;BME280;18592;49.708;10.900;2023-01-29T12:17:35;99656.13;;;5.72;48.01
21433;BME280;18592;49.708;10.900;2023-01-29T12:19:45;99647.00;;;5.73;47.78